createdAt,value
2019-03-26T00:02:22.696Z,92.00
2019-03-26T00:04:51.102Z,92.20
2019-03-26T00:07:19.529Z,92.30
2019-03-26T00:09:48.176Z,92.30
2019-03-26T00:12:16.647Z,92.40
2019-03-26T00:14:45.065Z,92.50
2019-03-26T00:17:13.494Z,92.70
2019-03-26T00:19:42.177Z,92.60
2019-03-26T00:22:10.601Z,92.50
2019-03-26T00:24:39.017Z,92.40
2019-03-26T00:27:07.992Z,92.40
2019-03-26T00:29:36.902Z,92.90
2019-03-26T00:32:05.330Z,92.90
2019-03-26T00:34:33.971Z,92.90
2019-03-26T00:37:02.442Z,93.00
2019-03-26T00:39:31.119Z,92.80
2019-03-26T00:41:59.773Z,92.60
2019-03-26T00:44:28.235Z,92.60
2019-03-26T00:46:56.879Z,92.80
2019-03-26T00:49:25.589Z,93.00
2019-03-26T00:51:54.033Z,92.70
2019-03-26T00:54:22.778Z,92.80
2019-03-26T00:56:51.420Z,92.80
2019-03-26T00:59:20.122Z,92.90
2019-03-26T01:01:48.551Z,92.90
2019-03-26T01:04:17.041Z,93.10
2019-03-26T01:06:45.545Z,92.80
2019-03-26T01:09:13.965Z,93.00
2019-03-26T01:11:42.393Z,93.10
2019-03-26T01:14:11.074Z,93.20
2019-03-26T01:16:39.505Z,93.20
2019-03-26T01:19:07.925Z,93.50
2019-03-26T01:21:36.350Z,93.40
2019-03-26T01:24:05.024Z,93.50
2019-03-26T01:26:33.666Z,93.90
2019-03-26T01:29:02.125Z,94.40
2019-03-26T01:31:30.767Z,94.50
2019-03-26T01:33:59.230Z,94.80
2019-03-26T01:36:27.657Z,94.80
2019-03-26T01:38:56.077Z,94.70
2019-03-26T01:41:24.509Z,94.50
2019-03-26T01:43:53.257Z,94.50
2019-03-26T01:46:21.898Z,94.20
2019-03-26T01:48:50.369Z,94.40
2019-03-26T01:51:19.077Z,94.20
2019-03-26T01:53:47.535Z,94.00
2019-03-26T01:56:15.989Z,93.80
2019-03-26T01:58:44.414Z,93.60
2019-03-26T02:01:12.830Z,93.50
2019-03-26T02:03:41.285Z,93.50
2019-03-26T02:06:09.705Z,93.70
2019-03-26T02:08:38.355Z,93.60
2019-03-26T02:11:06.805Z,93.70
2019-03-26T02:13:35.247Z,93.50
2019-03-26T02:16:03.680Z,93.60
2019-03-26T02:18:32.324Z,93.70
2019-03-26T02:21:01.050Z,93.60
2019-03-26T02:23:29.536Z,93.70
2019-03-26T02:25:57.970Z,93.70
2019-03-26T02:28:26.390Z,93.70
2019-03-26T02:30:54.810Z,93.50
2019-03-26T02:33:23.460Z,93.50
2019-03-26T02:35:51.922Z,93.70
2019-03-26T02:38:20.354Z,93.60
2019-03-26T02:40:48.782Z,93.60
2019-03-26T02:43:17.223Z,93.70
2019-03-26T02:45:45.899Z,93.80
2019-03-26T02:48:14.329Z,93.70
2019-03-26T02:50:42.750Z,93.60
2019-03-26T02:53:11.185Z,93.20
2019-03-26T02:55:39.610Z,93.20
2019-03-26T02:58:08.259Z,93.20
2019-03-26T03:00:36.726Z,93.30
2019-03-26T03:03:05.161Z,93.20
2019-03-26T03:05:35.764Z,93.30
2019-03-26T03:08:03.731Z,93.40
2019-03-26T03:10:32.156Z,93.20
2019-03-26T03:13:00.823Z,93.20
2019-03-26T03:15:29.260Z,93.10
2019-03-26T03:17:57.757Z,93.20
2019-03-26T03:20:26.403Z,92.90
2019-03-26T03:22:55.081Z,92.90
2019-03-26T03:25:23.576Z,93.00
2019-03-26T03:27:52.287Z,93.00
2019-03-26T03:30:21.076Z,92.90
2019-03-26T03:32:49.543Z,92.90
2019-03-26T03:35:17.967Z,92.60
2019-03-26T03:37:46.623Z,92.40
2019-03-26T03:40:15.585Z,92.40
2019-03-26T03:42:44.237Z,92.40
2019-03-26T03:45:13.394Z,92.40
2019-03-26T03:47:42.694Z,92.10
2019-03-26T03:50:12.854Z,92.30
2019-03-26T03:52:41.979Z,92.30
2019-03-26T03:55:11.187Z,92.30
2019-03-26T03:57:39.946Z,92.20
2019-03-26T04:00:23.718Z,92.20
2019-03-26T04:02:52.424Z,92.30
2019-03-26T04:05:20.826Z,92.40
2019-03-26T04:07:49.471Z,92.60
2019-03-26T04:10:18.155Z,92.90
2019-03-26T04:12:46.628Z,92.80
2019-03-26T04:15:15.038Z,92.90
2019-03-26T04:17:43.477Z,92.90
2019-03-26T04:20:11.888Z,92.90
2019-03-26T04:22:40.326Z,92.70
2019-03-26T04:25:08.824Z,92.60
2019-03-26T04:27:37.690Z,92.90
2019-03-26T04:30:08.285Z,92.90
2019-03-26T04:32:36.726Z,92.90
2019-03-26T04:35:07.337Z,93.10
2019-03-26T04:37:35.775Z,93.30
2019-03-26T04:40:04.609Z,93.30
2019-03-26T04:42:33.082Z,93.10
2019-03-26T04:45:01.497Z,93.20
2019-03-26T04:47:29.925Z,93.20
2019-03-26T04:49:58.342Z,93.10
2019-03-26T04:52:26.986Z,93.20
2019-03-26T04:54:55.457Z,93.30
2019-03-26T04:57:23.888Z,93.20
2019-03-26T04:59:52.306Z,93.10
2019-03-26T05:02:20.979Z,93.00
2019-03-26T05:04:49.420Z,93.10
2019-03-26T05:07:18.086Z,93.00
2019-03-26T05:09:46.530Z,92.90
2019-03-26T05:12:15.194Z,92.70
2019-03-26T05:14:43.625Z,92.60
2019-03-26T05:17:12.049Z,92.60
2019-03-26T05:19:40.480Z,92.80
2019-03-26T05:22:08.903Z,93.00
2019-03-26T05:24:37.402Z,93.00
2019-03-26T05:27:05.826Z,93.10
2019-03-26T05:29:34.265Z,93.20
2019-03-26T05:32:02.691Z,93.20
2019-03-26T05:34:31.123Z,93.10
2019-03-26T05:36:59.546Z,93.10
2019-03-26T05:39:27.986Z,92.90
2019-03-26T05:41:56.406Z,92.70
2019-03-26T05:44:24.837Z,92.50
2019-03-26T05:46:53.264Z,92.70
2019-03-26T05:49:21.698Z,93.10
2019-03-26T05:51:50.113Z,93.40
2019-03-26T05:54:18.561Z,93.30
2019-03-26T05:56:47.054Z,93.10
2019-03-26T05:59:15.757Z,93.00
2019-03-26T06:01:44.287Z,92.50
2019-03-26T06:04:12.721Z,92.20
2019-03-26T06:06:41.150Z,91.80
2019-03-26T06:09:09.596Z,90.90
2019-03-26T06:11:38.013Z,91.00
2019-03-26T06:14:06.454Z,90.70
2019-03-26T06:16:38.457Z,90.50
2019-03-26T06:19:05.305Z,89.70
2019-03-26T06:21:33.726Z,90.20
2019-03-26T06:24:02.155Z,89.50
2019-03-26T06:26:30.569Z,88.80
2019-03-26T06:29:01.171Z,88.90
2019-03-26T06:31:29.405Z,89.10
2019-03-26T06:33:57.817Z,88.40
2019-03-26T06:36:26.249Z,88.10
2019-03-26T06:38:54.669Z,87.50
2019-03-26T06:41:23.102Z,87.70
2019-03-26T06:43:51.527Z,88.50
2019-03-26T06:46:19.967Z,88.00
2019-03-26T06:48:48.381Z,88.10
2019-03-26T06:51:16.822Z,88.10
2019-03-26T06:53:45.503Z,86.90
2019-03-26T06:56:13.991Z,86.90
2019-03-26T06:58:42.656Z,86.60
2019-03-26T07:01:11.094Z,86.20
2019-03-26T07:03:39.513Z,85.70
2019-03-26T07:06:07.937Z,85.40
2019-03-26T07:08:36.344Z,85.40
2019-03-26T07:11:05.221Z,84.00
2019-03-26T07:13:33.898Z,82.70
2019-03-26T07:16:02.591Z,80.80
2019-03-26T07:18:31.046Z,80.70
2019-03-26T07:20:59.474Z,80.80
2019-03-26T07:23:27.894Z,81.20
2019-03-26T07:25:56.326Z,82.60
2019-03-26T07:28:24.742Z,82.30
2019-03-26T07:30:53.398Z,83.00
2019-03-26T07:33:21.856Z,82.50
2019-03-26T07:35:50.261Z,82.70
2019-03-26T07:38:18.685Z,81.80
2019-03-26T07:40:49.523Z,81.20
2019-03-26T07:43:18.033Z,80.50
2019-03-26T07:45:46.679Z,80.50
2019-03-26T07:48:15.337Z,79.80
2019-03-26T07:50:44.055Z,79.70
2019-03-26T07:53:12.525Z,78.20
2019-03-26T07:55:43.764Z,77.00
2019-03-26T07:58:11.114Z,76.90
2019-03-26T08:00:39.610Z,76.10
2019-03-26T08:03:08.266Z,75.70
2019-03-26T08:05:36.691Z,72.00
2019-03-26T08:08:05.460Z,68.40
2019-03-26T08:10:33.998Z,67.50
2019-03-26T08:13:02.675Z,67.20
2019-03-26T08:15:31.312Z,67.20
2019-03-26T08:17:59.758Z,69.00
2019-03-26T08:20:28.254Z,68.90
2019-03-26T08:22:56.683Z,68.60
2019-03-26T08:25:25.112Z,67.80
2019-03-26T08:27:53.528Z,67.50
2019-03-26T08:30:21.957Z,65.10
2019-03-26T08:32:50.380Z,65.40
2019-03-26T08:35:18.805Z,65.90
2019-03-26T08:37:47.467Z,64.60
2019-03-26T08:40:15.958Z,63.80
2019-03-26T08:42:44.391Z,62.30
2019-03-26T08:45:12.943Z,61.50
2019-03-26T08:47:41.428Z,60.00
2019-03-26T08:50:10.259Z,58.10
2019-03-26T08:52:38.731Z,56.60
2019-03-26T08:55:09.289Z,55.00
2019-03-26T08:57:37.963Z,54.70
2019-03-26T09:00:08.438Z,50.40
2019-03-26T09:02:37.035Z,50.40
2019-03-26T09:05:07.467Z,51.20
2019-03-26T09:07:35.890Z,49.20
2019-03-26T09:10:06.159Z,49.40
2019-03-26T09:12:34.590Z,50.90
2019-03-26T09:15:03.078Z,46.90
2019-03-26T09:17:31.515Z,46.40
2019-03-26T09:19:59.922Z,42.00
2019-03-26T09:22:28.347Z,38.60
2019-03-26T09:24:56.775Z,40.80
2019-03-26T09:27:25.206Z,40.60
2019-03-26T09:29:53.637Z,43.40
2019-03-26T09:32:22.076Z,42.80
2019-03-26T09:34:50.500Z,40.30
2019-03-26T09:37:18.944Z,40.30
2019-03-26T09:39:47.391Z,40.00
2019-03-26T09:42:15.819Z,41.10
2019-03-26T09:44:44.451Z,36.90
2019-03-26T09:47:16.386Z,36.70
2019-03-26T09:49:43.536Z,34.00
2019-03-26T09:52:11.999Z,29.30
2019-03-26T09:54:40.432Z,25.40
2019-03-26T09:57:08.861Z,20.80
2019-03-26T09:59:37.279Z,23.10
2019-03-26T10:02:05.774Z,23.80
2019-03-26T10:04:34.404Z,22.10
2019-03-26T10:07:02.867Z,14.60
2019-03-26T10:09:31.295Z,11.50
2019-03-26T10:11:59.951Z,7.50
2019-03-26T10:14:29.317Z,11.40
2019-03-26T10:16:57.892Z,15.20
2019-03-26T10:19:26.315Z,15.70
2019-03-26T10:21:54.747Z,17.20
2019-03-26T10:24:23.165Z,18.50
2019-03-26T10:26:51.586Z,18.20
2019-03-26T10:29:30.133Z,20.60
2019-03-26T10:31:50.159Z,22.30
2019-03-26T10:34:18.722Z,21.00
2019-03-26T10:36:48.592Z,20.80
2019-03-26T10:39:17.008Z,21.40
2019-03-26T10:41:45.460Z,20.90
2019-03-26T10:44:13.891Z,20.00
2019-03-26T10:46:44.556Z,20.70
2019-03-26T10:49:12.474Z,18.30
2019-03-26T10:51:40.895Z,17.20
2019-03-26T10:54:09.334Z,17.20
2019-03-26T10:56:38.016Z,17.20
2019-03-26T10:59:06.446Z,17.80
2019-03-26T11:01:35.108Z,7.30
2019-03-26T11:04:03.931Z,5.60
2019-03-26T11:06:32.370Z,5.70
2019-03-26T11:09:00.795Z,6.40
2019-03-26T11:11:29.457Z,4.40
2019-03-26T11:13:58.858Z,4.00
2019-03-26T11:16:27.443Z,4.40
2019-03-26T11:18:55.888Z,4.00
2019-03-26T11:21:24.309Z,2.60
2019-03-26T11:23:52.733Z,2.80
2019-03-26T11:26:21.142Z,3.60
2019-03-26T11:28:49.575Z,4.90
2019-03-26T11:31:18.041Z,4.70
2019-03-26T11:33:46.466Z,6.50
2019-03-26T11:36:14.954Z,6.60
2019-03-26T11:38:43.407Z,4.40
2019-03-26T11:41:11.876Z,3.60
2019-03-26T11:43:40.296Z,4.30
2019-03-26T11:46:08.958Z,6.00
2019-03-26T11:48:37.435Z,7.10
2019-03-26T11:51:05.918Z,8.40
2019-03-26T11:53:34.334Z,8.80
2019-03-26T11:56:02.763Z,8.60
2019-03-26T11:58:31.227Z,8.90
2019-03-26T12:00:59.940Z,9.80
2019-03-26T12:03:28.365Z,9.80
2019-03-26T12:05:56.782Z,10.10
2019-03-26T12:08:25.211Z,11.50
2019-03-26T12:10:53.875Z,11.60
2019-03-26T12:13:22.305Z,12.30
2019-03-26T12:15:51.052Z,12.20
2019-03-26T12:18:19.528Z,13.30
2019-03-26T12:20:47.950Z,12.80
2019-03-26T12:23:16.379Z,12.80
2019-03-26T12:25:44.791Z,12.70
2019-03-26T12:28:13.223Z,12.60
2019-03-26T12:30:41.648Z,12.70
2019-03-26T12:33:10.092Z,12.60
2019-03-26T12:35:38.686Z,12.80
2019-03-26T12:38:17.727Z,13.40
2019-03-26T12:40:46.391Z,13.70
2019-03-26T12:43:15.136Z,11.00
2019-03-26T12:45:43.639Z,9.00
2019-03-26T12:48:12.051Z,9.50
2019-03-26T12:50:40.479Z,9.80
2019-03-26T12:53:09.127Z,10.00
2019-03-26T12:55:37.598Z,10.70
2019-03-26T12:58:06.033Z,12.10
2019-03-26T13:00:34.619Z,12.90
2019-03-26T13:03:03.037Z,13.10
2019-03-26T13:05:31.690Z,13.10
2019-03-26T13:08:00.161Z,13.30
2019-03-26T13:10:28.595Z,12.90
2019-03-26T13:12:57.023Z,12.70
2019-03-26T13:15:25.494Z,11.90
2019-03-26T13:17:53.905Z,11.30
2019-03-26T13:20:22.354Z,12.50
2019-03-26T13:22:50.767Z,12.20
2019-03-26T13:25:19.447Z,12.70
2019-03-26T13:27:48.090Z,12.90
2019-03-26T13:30:16.994Z,13.20
2019-03-26T13:32:45.639Z,13.40
2019-03-26T13:35:14.338Z,12.10
2019-03-26T13:37:42.919Z,11.10
2019-03-26T13:40:11.983Z,8.60
2019-03-26T13:42:40.401Z,3.20
2019-03-26T13:45:08.990Z,1.00
2019-03-26T13:47:37.770Z,1.00
2019-03-26T13:50:07.669Z,1.00
2019-03-26T13:52:36.083Z,1.00
2019-03-26T13:55:06.794Z,1.00
2019-03-26T13:57:35.495Z,1.00
2019-03-26T14:00:08.197Z,1.00
2019-03-26T14:02:37.095Z,1.00
2019-03-26T14:05:08.890Z,1.00
2019-03-26T14:07:37.305Z,1.00
2019-03-26T14:10:06.667Z,1.00
2019-03-26T14:12:35.082Z,2.20
2019-03-26T14:15:04.183Z,2.60
2019-03-26T14:17:32.587Z,1.10
2019-03-26T14:20:01.015Z,2.60
2019-03-26T14:22:29.664Z,3.40
2019-03-26T14:24:58.122Z,3.70
2019-03-26T14:27:26.526Z,5.20
2019-03-26T14:29:55.023Z,6.20
2019-03-26T14:32:23.693Z,8.00
2019-03-26T14:34:52.230Z,8.70
2019-03-26T14:37:20.722Z,8.70
2019-03-26T14:39:49.141Z,9.10
2019-03-26T14:42:17.592Z,9.80
2019-03-26T14:44:46.018Z,9.20
2019-03-26T14:47:14.439Z,8.40
2019-03-26T14:49:42.850Z,6.30
2019-03-26T14:52:11.309Z,4.30
2019-03-26T14:54:39.723Z,4.20
2019-03-26T14:57:08.147Z,5.40
2019-03-26T14:59:36.562Z,6.10
2019-03-26T15:02:04.987Z,7.10
2019-03-26T15:04:33.409Z,8.70
2019-03-26T15:07:01.887Z,9.30
2019-03-26T15:09:30.310Z,10.20
2019-03-26T15:11:58.736Z,11.40
2019-03-26T15:14:27.151Z,11.80
2019-03-26T15:16:55.590Z,13.00
2019-03-26T15:19:24.010Z,13.00
2019-03-26T15:21:52.450Z,13.10
2019-03-26T15:24:20.873Z,13.30
2019-03-26T15:26:49.307Z,13.00
2019-03-26T15:29:17.726Z,12.30
2019-03-26T15:31:46.403Z,12.10
2019-03-26T15:34:15.039Z,12.50
2019-03-26T15:36:43.516Z,12.30
2019-03-26T15:39:12.011Z,12.60
2019-03-26T15:41:40.506Z,13.00
2019-03-26T15:44:08.922Z,13.20
2019-03-26T15:46:37.409Z,13.40
2019-03-26T15:49:05.975Z,13.30
2019-03-26T15:51:34.437Z,13.70
2019-03-26T15:54:03.021Z,13.40
2019-03-26T15:56:31.462Z,13.90
2019-03-26T15:58:59.944Z,14.50
2019-03-26T16:01:28.382Z,14.90
2019-03-26T16:03:56.790Z,15.60
2019-03-26T16:06:25.455Z,15.90
2019-03-26T16:08:54.124Z,15.30
2019-03-26T16:11:35.203Z,15.00
2019-03-26T16:13:52.985Z,15.20
2019-03-26T16:16:21.414Z,15.00
2019-03-26T16:18:50.109Z,14.90
2019-03-26T16:21:18.592Z,14.80
2019-03-26T16:23:47.252Z,15.10
2019-03-26T16:26:15.665Z,15.60
2019-03-26T16:28:44.309Z,16.00
2019-03-26T16:31:12.761Z,16.00
2019-03-26T16:33:41.409Z,16.50
2019-03-26T16:36:09.874Z,16.70
2019-03-26T16:38:38.783Z,16.90
2019-03-26T16:41:07.196Z,17.50
2019-03-26T16:43:35.630Z,17.50
2019-03-26T16:46:04.304Z,17.90
2019-03-26T16:48:32.929Z,17.90
2019-03-26T16:51:01.391Z,17.80
2019-03-26T16:53:30.058Z,18.30
2019-03-26T16:55:58.549Z,18.90
2019-03-26T16:58:27.220Z,19.40
2019-03-26T17:00:55.662Z,19.40
2019-03-26T17:03:31.330Z,19.60
2019-03-26T17:05:54.270Z,19.90
2019-03-26T17:08:22.912Z,20.00
2019-03-26T17:10:51.400Z,20.30
2019-03-26T17:13:19.831Z,20.60
2019-03-26T17:15:48.266Z,20.60
2019-03-26T17:18:16.705Z,20.80
2019-03-26T17:20:45.106Z,20.90
2019-03-26T17:23:13.547Z,21.00
2019-03-26T17:25:41.970Z,21.40
2019-03-26T17:28:10.399Z,21.80
2019-03-26T17:30:39.079Z,22.50
2019-03-26T17:33:07.594Z,22.80
2019-03-26T17:35:36.059Z,23.30
2019-03-26T17:38:04.868Z,23.40
2019-03-26T17:40:33.330Z,23.50
2019-03-26T17:43:01.967Z,24.00
2019-03-26T17:45:30.426Z,24.30
2019-03-26T17:47:59.166Z,24.70
2019-03-26T17:50:27.627Z,24.70
2019-03-26T17:52:56.064Z,24.90
2019-03-26T17:55:24.491Z,25.20
2019-03-26T17:57:53.396Z,25.20
2019-03-26T18:00:25.196Z,25.80
2019-03-26T18:02:53.626Z,26.70
2019-03-26T18:05:26.914Z,26.40
2019-03-26T18:07:56.011Z,26.90
2019-03-26T18:10:24.649Z,26.70
2019-03-26T18:12:53.120Z,27.30
2019-03-26T18:15:21.772Z,27.50
2019-03-26T18:17:50.313Z,28.20
2019-03-26T18:20:31.567Z,27.70
2019-03-26T18:22:48.897Z,27.90
2019-03-26T18:25:17.314Z,27.60
2019-03-26T18:27:45.763Z,27.60
2019-03-26T18:30:14.549Z,27.60
2019-03-26T18:32:43.195Z,27.60
2019-03-26T18:35:11.880Z,28.10
2019-03-26T18:37:40.355Z,27.70
2019-03-26T18:40:09.023Z,28.50
2019-03-26T18:42:43.908Z,28.40
2019-03-26T18:45:07.813Z,28.00
2019-03-26T18:47:36.268Z,28.20
2019-03-26T18:50:06.132Z,27.90
2019-03-26T18:52:34.549Z,28.00
2019-03-26T18:55:03.050Z,27.80
2019-03-26T18:57:31.587Z,27.80
2019-03-26T19:00:00.159Z,27.90
2019-03-26T19:02:29.015Z,28.30
2019-03-26T19:04:57.714Z,28.40
2019-03-26T19:07:26.244Z,28.50
2019-03-26T19:09:54.714Z,28.70
2019-03-26T19:12:23.267Z,28.50
2019-03-26T19:14:51.707Z,28.50
2019-03-26T19:17:20.385Z,28.70
2019-03-26T19:19:48.890Z,29.20
2019-03-26T19:22:17.397Z,29.10
2019-03-26T19:24:45.832Z,28.90
2019-03-26T19:27:14.250Z,29.10
2019-03-26T19:29:42.964Z,29.20
2019-03-26T19:32:11.461Z,29.60
2019-03-26T19:34:39.899Z,29.50
2019-03-26T19:37:08.331Z,29.70
2019-03-26T19:39:36.775Z,29.70
2019-03-26T19:42:05.296Z,29.90
2019-03-26T19:44:33.785Z,30.10
2019-03-26T19:47:02.270Z,30.20
2019-03-26T19:49:30.932Z,30.40
2019-03-26T19:51:59.405Z,30.70
2019-03-26T19:54:28.080Z,30.90
2019-03-26T19:56:56.805Z,31.20
2019-03-26T19:59:25.315Z,31.50
2019-03-26T20:01:54.075Z,31.70
2019-03-26T20:04:22.521Z,31.90
2019-03-26T20:06:50.949Z,32.00
2019-03-26T20:09:19.432Z,31.90
2019-03-26T20:11:48.172Z,32.20
2019-03-26T20:14:16.640Z,32.60
2019-03-26T20:16:45.079Z,32.60
2019-03-26T20:19:13.490Z,32.60
2019-03-26T20:21:41.941Z,32.40
2019-03-26T20:24:10.391Z,32.50
2019-03-26T20:26:38.966Z,32.60
2019-03-26T20:29:07.402Z,32.60
2019-03-26T20:31:35.890Z,32.70
2019-03-26T20:34:04.555Z,32.60
2019-03-26T20:36:33.031Z,32.80
2019-03-26T20:39:01.699Z,32.90
2019-03-26T20:41:30.151Z,33.10
2019-03-26T20:43:58.576Z,32.90
2019-03-26T20:46:27.015Z,33.30
2019-03-26T20:48:55.480Z,33.30
2019-03-26T20:51:23.979Z,33.50
2019-03-26T20:53:52.392Z,33.70
2019-03-26T20:56:20.823Z,34.40
2019-03-26T20:58:49.556Z,34.10
2019-03-26T21:01:18.027Z,34.70
2019-03-26T21:03:46.432Z,34.80
2019-03-26T21:06:14.862Z,35.00
2019-03-26T21:08:43.285Z,35.10
2019-03-26T21:11:11.694Z,35.30
2019-03-26T21:13:50.299Z,35.60
2019-03-26T21:16:10.269Z,36.10
2019-03-26T21:18:38.725Z,36.20
2019-03-26T21:21:07.296Z,36.60
2019-03-26T21:23:36.015Z,36.40
2019-03-26T21:26:04.773Z,36.30
2019-03-26T21:28:33.445Z,36.40
2019-03-26T21:31:01.853Z,36.90
2019-03-26T21:33:30.281Z,37.80
2019-03-26T21:35:58.698Z,37.60
2019-03-26T21:38:27.149Z,37.30
2019-03-26T21:40:55.565Z,37.70
2019-03-26T21:43:23.988Z,38.10
2019-03-26T21:45:52.403Z,38.30
2019-03-26T21:48:20.827Z,39.00
2019-03-26T21:50:49.245Z,38.90
2019-03-26T21:53:17.666Z,39.10
2019-03-26T21:55:46.306Z,39.30
2019-03-26T21:58:14.765Z,39.60
2019-03-26T22:00:44.475Z,40.00
2019-03-26T22:03:12.979Z,39.80
2019-03-26T22:05:41.390Z,40.40
2019-03-26T22:08:09.807Z,40.30
2019-03-26T22:10:38.441Z,40.70
2019-03-26T22:13:07.141Z,41.20
2019-03-26T22:15:35.555Z,41.70
2019-03-26T22:18:04.226Z,41.90
2019-03-26T22:20:32.639Z,42.20
2019-03-26T22:23:01.408Z,42.10
2019-03-26T22:25:30.114Z,42.50
2019-03-26T22:27:58.826Z,42.90
2019-03-26T22:30:27.341Z,43.20
2019-03-26T22:32:55.769Z,43.40
2019-03-26T22:35:24.178Z,43.60
2019-03-26T22:37:52.604Z,43.80
2019-03-26T22:40:21.022Z,44.40
2019-03-26T22:42:49.447Z,44.70
2019-03-26T22:45:18.005Z,44.60
2019-03-26T22:47:46.667Z,44.50
2019-03-26T22:50:15.158Z,45.10
2019-03-26T22:52:43.574Z,45.40
2019-03-26T22:55:12.453Z,45.50
2019-03-26T22:57:41.326Z,45.70
2019-03-26T23:00:20.771Z,46.30
2019-03-26T23:02:49.182Z,46.50
2019-03-26T23:05:18.506Z,46.80
2019-03-26T23:07:46.999Z,47.30
2019-03-26T23:10:17.333Z,47.20
2019-03-26T23:12:45.998Z,47.50
2019-03-26T23:15:20.113Z,47.60
2019-03-26T23:17:48.593Z,48.00
2019-03-26T23:20:17.093Z,48.00
2019-03-26T23:22:45.566Z,48.00
2019-03-26T23:25:14.289Z,48.50
2019-03-26T23:27:42.990Z,49.30
2019-03-26T23:30:11.961Z,49.40
2019-03-26T23:32:40.373Z,49.70
2019-03-26T23:35:09.216Z,49.70
2019-03-26T23:37:37.670Z,49.90
2019-03-26T23:40:06.437Z,49.80
2019-03-26T23:42:34.853Z,50.50
2019-03-26T23:45:04.707Z,50.50
2019-03-26T23:47:33.124Z,50.90
2019-03-26T23:50:01.558Z,51.10
2019-03-26T23:52:29.974Z,51.90
2019-03-26T23:54:58.401Z,51.90
2019-03-26T23:57:26.834Z,52.10
2019-03-26T23:59:55.263Z,52.10
